Flight Track Log - Related Links

Times and Time Zones

All times are in EDT time to prevent confusion due to time zone crossing. See the AWI3970 flight status page for this flight to view local times or setup timezone preferences in your user account.

Time Position Orientation Groundspeed Altitude Reporting Facility
EDT Latitude Longitude Course Direction KTS MPH feet Rate Location/Type
Sat 12:44:52 AM 39.8667 -75.2500 237° Southwest 155 178 700  Level Philadelphia TRACON
Sat 12:45:22 AM 39.8500 -75.2833 237° Southwest 142 163 2,000 2,267 Climbing Philadelphia TRACON
Sat 12:46:22 AM 39.8333 -75.3333 247° West 198 228 4,100 2,200 Climbing Philadelphia TRACON
Sat 12:47:22 AM 39.7833 -75.3667 207° Southwest 243 280 6,400 1,861 Climbing Philadelphia TRACON
Sat 12:49:29 AM 39.7719 -75.1436 94° East 315 362 9,900 1,548 Climbing New York Center
Sat 12:50:28 AM 39.7786 -75.0197 86° East 327 376 11,200 1,068 Climbing New York Center
Sat 12:51:27 AM 39.7856 -74.8797 86° East 367 422 12,000 1,373 Climbing New York Center
Sat 12:52:26 AM 39.8417 -74.7642 58° Northeast 394 453 13,900 1,636 Climbing New York Center
Sat 12:53:28 AM 39.9183 -74.6575 47° Northeast 388 447 15,300 1,426 Climbing New York Center
Sat 12:54:28 AM 39.9969 -74.5481 47° Northeast 401 461 16,800 1,700 Climbing New York Center
Sat 12:55:28 AM 40.0981 -74.4422 39° Northeast 435 501 18,700 1,339 Climbing New York Center
Sat 12:56:29 AM 40.1992 -74.4122 13° North 417 480 19,500 958 Climbing New York Center
Sat 12:57:27 AM 40.3186 -74.3858 10° North 417 480 20,600 1,059 Climbing New York Center
Sat 12:58:28 AM 40.4361 -74.3594 10° North 422 486 21,600 818 Climbing New York Center
Sat 01:00:01 AM 40.6239 -74.3131 11° North 432 497 22,700 745 Climbing Boston Center
Sat 01:01:01 AM 40.7617 -74.2897 North 441 507 23,500 750 Climbing Boston Center
Sat 01:02:01 AM 40.8872 -74.2603 10° North 447 514 24,200 600 Climbing Boston Center
Sat 01:03:01 AM 41.0086 -74.2308 10° North 447 514 24,700 400 Climbing Boston Center
Sat 01:04:01 AM 41.1361 -74.1983 11° North 452 520 25,000 150 Climbing Boston Center
Sat 01:05:01 AM 41.2367 -74.1736 10° North 452 520 25,000  Level Boston Center
Sat 01:06:01 AM 41.3914 -74.1336 11° North 452 520 25,000  Level Boston Center
Sat 01:07:01 AM 41.5211 -74.1008 11° North 469 540 25,000 -800 Level Boston Center
Sat 01:08:01 AM 41.6572 -74.0711 North 483 556 23,400 -1,950 Descending Boston Center
Sat 01:09:01 AM 41.7806 -74.0381 11° North 470 541 21,100 -2,100 Descending Boston Center
Sat 01:10:01 AM 41.8808 -74.0211 North 441 507 19,200 -2,550 Descending Boston Center
Sat 01:11:01 AM 42.0042 -73.9878 11° North 402 463 16,000 -2,900 Descending Boston Center
Sat 01:12:01 AM 42.1108 -73.9625 10° North 389 448 13,400 -2,600 Descending Boston Center
Sat 01:12:31 AM 42.1589 -73.9497 11° North 383 441 12,100 -2,200 Descending Boston Center
Sat 01:13:01 AM 42.2008 -73.9339 16° North 381 438 11,200 -1,900 Descending Boston Center
Sat 01:13:31 AM 42.2575 -73.9156 13° North 352 405 10,200 -2,000 Descending Boston Center
Sat 01:14:01 AM 42.3014 -73.8969 17° North 346 398 9,200 -2,459 Descending Boston Center
Sat 01:14:32 AM 42.3475 -73.8811 14° North 294 338 7,700 -2,703 Descending Boston Center
Sat 01:15:32 AM 42.4228 -73.8519 16° North 282 325 5,100 -2,281 Descending Boston Center
Sat 01:16:33 AM 42.4942 -73.8228 17° North 263 303 3,100 -1,230 Descending Boston Center
Sat 01:17:34 AM 42.5528 -73.8014 15° North 208 239 2,600 -248 Descending Boston Center
Sat 01:18:34 AM 42.6006 -73.8025 359° North 169 194 2,600 -298 Level Boston Center
Sat 01:19:35 AM 42.6486 -73.8006 North 166 191 2,000 -639 Descending Boston Center
Sat 01:20:36 AM 42.6903 -73.8044 356° North 151 174 1,300 -744 Descending Boston Center
Sat 01:21:36 AM 42.7319 -73.8081 356° North 136 157 500 -800 Descending Boston Center
Sat 01:26:00 AM 42.7333 -73.8000 10° North  Level FlightAware Approximate

Login

Don't have an account? Register now (free) for customized features, flight alerts, and more!